Time;durP1;ratioP1;P1;durP2;ratioP2;P2;SDS_P1;SDS_P2;PMS_P1;PMS_P2;Temp;Humidity;BMP_temperature;BMP_pressure;BME280_temperature;BME280_humidity;BME280_pressure;Samples;Min_cycle;Max_cycle;Signal;HPM_P1;HPM_P2
2022/09/11 00:02:23;;;;;;;;;;;;;;;14.13;100.00;100006.06;12880524;23;20302;-70
2022/09/11 00:07:26;;;;;;;;;;;;;;;14.16;100.00;99999.88;12835246;23;20319;-72
2022/09/11 00:12:29;;;;;;;;;;;;;;;14.15;100.00;99987.75;12880323;23;20252;-73
2022/09/11 00:17:34;;;;;;;;;;;;;;;14.10;100.00;99987.03;12880505;23;19924;-69
2022/09/11 00:22:37;;;;;;;;;;;;;;;14.05;100.00;99984.53;12880516;23;20058;-74
2022/09/11 00:27:40;;;;;;;;;;;;;;;14.05;100.00;99976.72;12877329;23;19955;-73
2022/09/11 00:32:44;;;;;;;;;;;;;;;14.00;100.00;99975.13;12861900;23;19967;-67
2022/09/11 00:37:47;;;;;;;;;;;;;;;13.89;100.00;99970.25;12881193;23;19955;-66
2022/09/11 00:42:51;;;;;;;;;;;;;;;13.91;100.00;99960.59;12881997;23;19994;-65
2022/09/11 00:47:58;;;;;;;;;;;;;;;13.93;100.00;99969.25;12883008;23;19924;-66
2022/09/11 00:53:03;;;;;;;;;;;;;;;13.88;100.00;99964.19;12882708;23;20382;-68
2022/09/11 00:58:10;;;;;;;;;;;;;;;13.89;100.00;99962.44;12880962;23;19935;-73
2022/09/11 01:03:14;;;;;;;;;;;;;;;14.01;100.00;99962.06;12879792;23;19935;-70
2022/09/11 01:08:19;;;;;;;;;;;;;;;13.93;100.00;99959.69;12879686;23;19938;-72
2022/09/11 01:13:28;;;;;;;;;;;;;;;13.86;100.00;99950.31;12879706;23;20269;-71
2022/09/11 01:18:34;;;;;;;;;;;;;;;13.85;100.00;99953.84;12880609;23;19992;-71
2022/09/11 01:23:45;;;;;;;;;;;;;;;13.82;100.00;99953.91;12884909;23;20340;-71
2022/09/11 01:28:52;;;;;;;;;;;;;;;13.80;100.00;99954.88;12879775;23;19931;-73
2022/09/11 01:33:58;;;;;;;;;;;;;;;13.82;100.00;99947.88;12885802;23;20429;-72
2022/09/11 01:39:02;;;;;;;;;;;;;;;13.75;100.00;99941.13;12886125;23;19948;-72
2022/09/11 01:44:09;;;;;;;;;;;;;;;13.76;100.00;99924.56;12885708;23;19931;-74
2022/09/11 01:49:15;;;;;;;;;;;;;;;13.73;100.00;99933.34;12884689;23;20379;-73
2022/09/11 01:54:20;;;;;;;;;;;;;;;13.68;100.00;99930.00;12884634;23;20297;-72
2022/09/11 01:59:27;;;;;;;;;;;;;;;13.69;100.00;99936.06;12866170;23;19962;-71
2022/09/11 02:04:33;;;;;;;;;;;;;;;13.72;100.00;99930.75;12884957;23;20042;-73
2022/09/11 02:09:39;;;;;;;;;;;;;;;13.71;100.00;99929.91;12866137;23;20004;-69
2022/09/11 02:14:45;;;;;;;;;;;;;;;13.74;100.00;99932.44;12865853;23;19919;-72
2022/09/11 02:19:48;;;;;;;;;;;;;;;13.73;100.00;99929.88;12869206;23;19962;-70
2022/09/11 02:24:52;;;;;;;;;;;;;;;13.73;100.00;99932.47;12870351;23;19952;-75
2022/09/11 02:29:57;;;;;;;;;;;;;;;13.77;100.00;99926.28;12871748;23;20021;-71
2022/09/11 02:35:00;;;;;;;;;;;;;;;13.69;100.00;99921.28;12869916;23;19995;-72
2022/09/11 02:40:18;;;;;;;;;;;;;;;13.68;100.00;99919.56;12870520;23;19940;-71
2022/09/11 02:45:33;;;;;;;;;;;;;;;13.72;100.00;99918.56;12886798;23;19944;-71
2022/09/11 02:50:40;;;;;;;;;;;;;;;13.72;100.00;99920.31;12869531;23;19991;-72
2022/09/11 02:55:50;;;;;;;;;;;;;;;13.74;100.00;99915.91;12885650;23;19943;-72
2022/09/11 03:00:55;;;;;;;;;;;;;;;13.72;100.00;99915.09;12885516;23;19962;-75
2022/09/11 03:05:58;;;;;;;;;;;;;;;13.72;100.00;99908.16;12870024;23;19944;-70
2022/09/11 03:11:01;;;;;;;;;;;;;;;13.73;100.00;99901.19;12869393;23;19920;-72
2022/09/11 03:16:06;;;;;;;;;;;;;;;13.74;100.00;99900.28;12869350;23;20005;-73
2022/09/11 03:21:10;;;;;;;;;;;;;;;13.68;100.00;99896.09;12885437;23;19944;-70
2022/09/11 03:26:14;;;;;;;;;;;;;;;13.73;100.00;99903.78;12869664;23;19931;-70
2022/09/11 03:31:18;;;;;;;;;;;;;;;13.77;100.00;99898.44;12868218;23;20062;-70
2022/09/11 03:36:21;;;;;;;;;;;;;;;13.70;100.00;99896.91;12869557;23;19951;-71
2022/09/11 03:41:25;;;;;;;;;;;;;;;13.66;100.00;99900.53;12868900;23;20286;-74
2022/09/11 03:46:29;;;;;;;;;;;;;;;13.61;100.00;99897.19;12868805;23;19939;-71
2022/09/11 03:51:34;;;;;;;;;;;;;;;13.60;100.00;99890.25;12869174;23;19994;-72
2022/09/11 03:56:37;;;;;;;;;;;;;;;13.58;100.00;99888.63;12868455;23;19955;-73
2022/09/11 04:01:41;;;;;;;;;;;;;;;13.60;100.00;99892.88;12868501;23;19954;-72
2022/09/11 04:06:44;;;;;;;;;;;;;;;13.67;100.00;99896.13;12868314;23;19943;-72
2022/09/11 04:11:47;;;;;;;;;;;;;;;13.65;100.00;99888.38;12868049;23;19927;-72
2022/09/11 04:16:52;;;;;;;;;;;;;;;13.61;100.00;99891.13;12868727;23;19920;-69
2022/09/11 04:21:55;;;;;;;;;;;;;;;13.56;100.00;99893.00;12868649;23;19983;-71
2022/09/11 04:26:59;;;;;;;;;;;;;;;13.52;100.00;99897.47;12868427;23;19986;-71
2022/09/11 04:32:04;;;;;;;;;;;;;;;13.49;100.00;99894.09;12867688;23;20219;-72
2022/09/11 04:37:07;;;;;;;;;;;;;;;13.46;100.00;99891.59;12867778;23;19978;-74
2022/09/11 04:42:10;;;;;;;;;;;;;;;13.49;100.00;99884.53;12867918;23;19951;-72
2022/09/11 04:47:15;;;;;;;;;;;;;;;13.50;100.00;99886.22;12868615;23;19943;-72
2022/09/11 04:52:19;;;;;;;;;;;;;;;13.50;100.00;99880.13;12867864;23;19999;-72
2022/09/11 04:57:22;;;;;;;;;;;;;;;13.47;100.00;99875.03;12867169;23;19927;-72
2022/09/11 05:02:26;;;;;;;;;;;;;;;13.51;100.00;99877.47;12867350;23;19974;-74
2022/09/11 05:07:30;;;;;;;;;;;;;;;13.50;100.00;99873.19;12867028;23;19955;-70
2022/09/11 05:12:34;;;;;;;;;;;;;;;13.50;100.00;99873.19;12866848;23;19998;-71
2022/09/11 05:17:39;;;;;;;;;;;;;;;13.47;100.00;99868.06;12866855;23;20051;-70
2022/09/11 05:22:42;;;;;;;;;;;;;;;13.48;100.00;99859.34;12866753;23;20338;-74
2022/09/11 05:27:45;;;;;;;;;;;;;;;13.50;100.00;99865.38;12866727;23;19920;-71
2022/09/11 05:32:53;;;;;;;;;;;;;;;13.45;100.00;99858.56;12866586;23;19960;-72
2022/09/11 05:37:56;;;;;;;;;;;;;;;13.49;100.00;99870.63;12882231;23;19920;-71
2022/09/11 05:42:59;;;;;;;;;;;;;;;13.50;100.00;99872.31;12866536;23;20290;-71
2022/09/11 05:48:03;;;;;;;;;;;;;;;13.50;100.00;99869.72;12864210;23;20391;-75
2022/09/11 05:53:06;;;;;;;;;;;;;;;13.52;100.00;99870.53;12859266;23;19924;-71
2022/09/11 05:58:10;;;;;;;;;;;;;;;13.55;100.00;99871.28;12860037;23;19919;-70
2022/09/11 06:03:14;;;;;;;;;;;;;;;13.54;100.00;99867.00;12858986;23;19947;-64
2022/09/11 06:08:18;;;;;;;;;;;;;;;13.46;100.00;99865.50;12858801;23;19995;-66
2022/09/11 06:13:21;;;;;;;;;;;;;;;13.41;100.00;99868.22;12858723;23;20219;-67
2022/09/11 06:18:26;;;;;;;;;;;;;;;13.34;100.00;99877.13;12860346;23;20001;-74
2022/09/11 06:23:29;;;;;;;;;;;;;;;13.40;100.00;99874.34;12865717;23;20244;-72
2022/09/11 06:28:31;;;;;;;;;;;;;;;13.49;100.00;99871.50;12865761;23;19920;-72
2022/09/11 06:33:36;;;;;;;;;;;;;;;13.55;100.00;99870.44;12865832;23;19920;-73
2022/09/11 06:38:40;;;;;;;;;;;;;;;13.51;100.00;99881.88;12866563;23;20271;-72
2022/09/11 06:43:44;;;;;;;;;;;;;;;13.53;100.00;99882.69;12865713;23;19920;-70
2022/09/11 06:48:49;;;;;;;;;;;;;;;13.51;100.00;99877.47;12865653;23;20308;-71
2022/09/11 06:53:56;;;;;;;;;;;;;;;13.56;100.00;99886.03;12865294;23;20375;-69
2022/09/11 06:59:00;;;;;;;;;;;;;;;13.55;100.00;99876.50;12882199;23;19920;-71
2022/09/11 07:04:05;;;;;;;;;;;;;;;13.56;100.00;99878.19;12866672;23;19931;-70
2022/09/11 07:09:10;;;;;;;;;;;;;;;13.57;100.00;99885.13;12866829;23;19970;-72
2022/09/11 07:14:13;;;;;;;;;;;;;;;13.53;100.00;99873.09;12861831;23;20309;-72
2022/09/11 07:19:18;;;;;;;;;;;;;;;13.49;100.00;99873.22;12862524;23;19943;-75
2022/09/11 07:24:21;;;;;;;;;;;;;;;13.50;100.00;99865.38;12862014;23;19947;-72
2022/09/11 07:29:24;;;;;;;;;;;;;;;13.49;100.00;99868.03;12862118;23;19935;-74
2022/09/11 07:34:28;;;;;;;;;;;;;;;13.45;100.00;99875.06;12861708;23;20003;-71
2022/09/11 07:39:31;;;;;;;;;;;;;;;13.45;100.00;99867.25;12861762;23;20005;-72
2022/09/11 07:44:35;;;;;;;;;;;;;;;13.55;100.00;99865.22;12862056;23;19924;-72
2022/09/11 07:49:39;;;;;;;;;;;;;;;13.55;100.00;99866.06;12862282;23;19927;-71
2022/09/11 07:54:42;;;;;;;;;;;;;;;13.52;100.00;99860.97;12861729;23;19920;-73
2022/09/11 07:59:45;;;;;;;;;;;;;;;13.53;100.00;99859.22;12862064;23;19924;-70
2022/09/11 08:04:50;;;;;;;;;;;;;;;13.47;100.00;99860.25;12861403;23;19950;-72
2022/09/11 08:09:53;;;;;;;;;;;;;;;13.43;100.00;99869.03;12861914;23;19920;-72
2022/09/11 08:15:16;;;;;;;;;;;;;;;13.39;100.00;99863.97;12879149;23;19966;-71
2022/09/11 08:20:21;;;;;;;;;;;;;;;13.33;100.00;99866.75;12862569;23;19946;-73
2022/09/11 08:25:24;;;;;;;;;;;;;;;13.27;100.00;99866.94;12861333;23;19920;-74
2022/09/11 08:30:27;;;;;;;;;;;;;;;13.27;100.00;99870.38;12861454;23;19924;-77
2022/09/11 08:35:32;;;;;;;;;;;;;;;13.27;100.00;99883.41;12861245;23;19978;-72
2022/09/11 08:40:37;;;;;;;;;;;;;;;13.24;100.00;99874.81;12877402;23;19950;-71
2022/09/11 08:45:40;;;;;;;;;;;;;;;13.29;100.00;99870.34;12860097;23;20275;-72
2022/09/11 08:50:46;;;;;;;;;;;;;;;13.20;100.00;99874.06;12860718;23;19944;-73
2022/09/11 08:55:50;;;;;;;;;;;;;;;13.22;100.00;99876.66;12877137;23;19923;-73
2022/09/11 09:00:58;;;;;;;;;;;;;;;13.22;100.00;99879.25;12861070;23;19931;-71
2022/09/11 09:06:11;;;;;;;;;;;;;;;13.32;100.00;99883.31;12859954;23;19919;-74
2022/09/11 09:11:20;;;;;;;;;;;;;;;13.36;100.00;99883.16;12876543;23;19940;-71
2022/09/11 09:16:27;;;;;;;;;;;;;;;13.30;100.00;99885.94;12876966;23;19947;-74
2022/09/11 09:21:34;;;;;;;;;;;;;;;13.15;100.00;99894.19;12876109;23;19999;-65
2022/09/11 09:26:39;;;;;;;;;;;;;;;13.13;100.00;99892.53;12875883;23;19919;-64
2022/09/11 09:31:44;;;;;;;;;;;;;;;13.12;100.00;99899.50;12859249;23;19999;-64
2022/09/11 09:36:55;;;;;;;;;;;;;;;13.09;100.00;99902.19;12859185;23;20481;-70
2022/09/11 09:42:09;;;;;;;;;;;;;;;13.15;100.00;99899.41;12859285;23;19979;-75
2022/09/11 09:47:14;;;;;;;;;;;;;;;13.14;100.00;99902.91;12874367;23;19920;-72
2022/09/11 09:52:19;;;;;;;;;;;;;;;13.12;100.00;99903.84;12860364;23;19924;-73
2022/09/11 09:57:24;;;;;;;;;;;;;;;13.17;100.00;99895.00;12876954;23;19923;-64
2022/09/11 10:02:37;;;;;;;;;;;;;;;13.16;100.00;99893.31;12860695;23;20213;-74
2022/09/11 10:07:47;;;;;;;;;;;;;;;13.16;100.00;99898.50;12873788;23;19946;-72
2022/09/11 10:12:50;;;;;;;;;;;;;;;13.18;100.00;99901.06;12873295;23;20003;-71
2022/09/11 10:18:36;;;;;;;;;;;;;;;13.19;100.00;99894.94;12871896;23;19935;-72
2022/09/11 10:23:44;;;;;;;;;;;;;;;13.14;100.00;99897.69;12870409;23;19923;-71
2022/09/11 10:28:47;;;;;;;;;;;;;;;13.11;100.00;99887.38;12870330;23;19994;-73
2022/09/11 10:33:52;;;;;;;;;;;;;;;13.07;100.00;99877.91;12859013;23;19956;-72
2022/09/11 10:38:57;;;;;;;;;;;;;;;13.19;100.00;99872.38;12836805;23;19939;-73
2022/09/11 10:44:02;;;;;;;;;;;;;;;13.21;100.00;99870.56;12881354;23;19954;-75
2022/09/11 10:49:15;;;;;;;;;;;;;;;13.30;100.00;99867.72;12869740;23;19920;-77
2022/09/11 10:54:27;;;;;;;;;;;;;;;13.21;100.00;99869.72;12880429;23;20359;-74
2022/09/11 10:59:35;;;;;;;;;;;;;;;13.36;100.00;99871.88;12879791;23;19958;-72
2022/09/11 11:04:39;;;;;;;;;;;;;;;13.56;100.00;99870.38;12880026;23;19920;-70
2022/09/11 11:09:49;;;;;;;;;;;;;;;13.79;100.00;99849.69;12869422;23;19943;-70
2022/09/11 11:15:05;;;;;;;;;;;;;;;13.88;100.00;99849.41;12876224;23;20292;-71
2022/09/11 11:20:16;;;;;;;;;;;;;;;14.02;100.00;99855.91;12863924;23;19920;-74
2022/09/11 11:25:26;;;;;;;;;;;;;;;14.10;100.00;99854.75;12871181;23;20472;-71
2022/09/11 11:30:30;;;;;;;;;;;;;;;14.18;100.00;99860.59;12869412;23;19931;-71
2022/09/11 11:35:36;;;;;;;;;;;;;;;14.21;100.00;99852.66;12862432;23;19962;-74
2022/09/11 11:40:42;;;;;;;;;;;;;;;14.23;100.00;99850.88;12869839;23;19920;-71
2022/09/11 11:45:48;;;;;;;;;;;;;;;14.34;100.00;99847.94;12862863;23;20224;-71
2022/09/11 11:50:54;;;;;;;;;;;;;;;14.40;100.00;99855.56;12861799;23;19935;-71
2022/09/11 11:56:02;;;;;;;;;;;;;;;14.56;100.00;99854.13;12835670;23;20022;-72
2022/09/11 12:01:09;;;;;;;;;;;;;;;14.70;100.00;99846.69;12868686;23;19958;-74
2022/09/11 12:06:12;;;;;;;;;;;;;;;14.77;100.00;99842.94;12868779;23;19976;-72
2022/09/11 12:11:18;;;;;;;;;;;;;;;14.80;100.00;99841.09;12862025;23;20315;-71
2022/09/11 12:16:27;;;;;;;;;;;;;;;14.89;100.00;99837.28;12872193;23;19924;-72
2022/09/11 12:21:41;;;;;;;;;;;;;;;15.09;100.00;99840.03;12875131;23;19954;-69
2022/09/11 12:26:45;;;;;;;;;;;;;;;15.23;100.00;99840.38;12868633;23;19943;-71
2022/09/11 12:32:08;;;;;;;;;;;;;;;15.37;100.00;99840.72;12867923;23;19920;-75
2022/09/11 12:37:14;;;;;;;;;;;;;;;15.50;100.00;99828.88;12867483;23;19982;-70
2022/09/11 12:42:35;;;;;;;;;;;;;;;15.62;100.00;99827.56;12868152;23;19954;-71
2022/09/11 12:47:40;;;;;;;;;;;;;;;15.84;100.00;99829.25;12867594;23;20323;-71
2022/09/11 12:52:47;;;;;;;;;;;;;;;16.18;100.00;99815.66;12860284;23;20369;-70
2022/09/11 12:57:51;;;;;;;;;;;;;;;16.45;100.00;99819.75;12859763;23;19960;-70
2022/09/11 13:02:56;;;;;;;;;;;;;;;16.99;98.29;99820.00;12861009;23;19923;-71
2022/09/11 13:08:03;;;;;;;;;;;;;;;17.10;96.49;99817.72;12861053;23;19943;-70
2022/09/11 13:13:26;;;;;;;;;;;;;;;17.23;94.76;99816.28;12859881;23;19934;-69
2022/09/11 13:18:33;;;;;;;;;;;;;;;17.20;94.16;99820.81;12862335;23;19940;-72
2022/09/11 13:23:36;;;;;;;;;;;;;;;16.98;93.33;99814.84;12861722;23;19931;-72
2022/09/11 13:28:43;;;;;;;;;;;;;;;16.89;92.42;99816.09;12859331;23;19955;-71
2022/09/11 13:33:50;;;;;;;;;;;;;;;16.86;90.85;99818.81;12861650;23;19935;-72
2022/09/11 13:38:55;;;;;;;;;;;;;;;16.98;90.25;99825.31;12860777;23;19935;-70
2022/09/11 13:43:59;;;;;;;;;;;;;;;16.92;88.07;99820.34;12859091;23;19931;-71
2022/09/11 13:49:24;;;;;;;;;;;;;;;17.18;86.07;99820.03;12858930;23;19920;-73
2022/09/11 13:54:29;;;;;;;;;;;;;;;17.11;85.26;99836.94;12879629;23;19924;-70
2022/09/11 13:59:37;;;;;;;;;;;;;;;17.06;84.93;99810.09;12859322;23;19990;-73
2022/09/11 14:04:42;;;;;;;;;;;;;;;16.93;81.20;99829.88;12860203;23;19943;-71
2022/09/11 14:09:46;;;;;;;;;;;;;;;16.76;79.03;99830.63;12882114;23;20327;-70
2022/09/11 14:14:52;;;;;;;;;;;;;;;16.67;77.59;99836.28;12860741;23;19982;-70
2022/09/11 14:20:01;;;;;;;;;;;;;;;16.58;74.91;99841.06;12880518;23;20334;-71
2022/09/11 14:25:05;;;;;;;;;;;;;;;16.55;74.30;99844.66;12879478;23;19928;-71
2022/09/11 14:30:26;;;;;;;;;;;;;;;16.49;73.29;99847.56;12858864;23;20003;-73
2022/09/11 14:35:32;;;;;;;;;;;;;;;16.42;72.91;99846.06;12879621;23;19957;-71
2022/09/11 14:40:35;;;;;;;;;;;;;;;16.37;73.30;99842.81;12879419;23;19931;-72
2022/09/11 14:45:38;;;;;;;;;;;;;;;16.28;72.19;99837.94;12859272;23;19947;-70
2022/09/11 14:50:43;;;;;;;;;;;;;;;16.25;71.70;99847.69;12858407;23;19951;-72
2022/09/11 14:55:46;;;;;;;;;;;;;;;16.26;72.17;99847.63;12857939;23;20459;-73
2022/09/11 15:00:49;;;;;;;;;;;;;;;16.28;72.30;99835.31;12858171;23;19967;-70
2022/09/11 15:05:56;;;;;;;;;;;;;;;16.25;72.55;99848.56;12858901;23;19924;-75
2022/09/11 15:10:58;;;;;;;;;;;;;;;16.22;72.78;99845.19;12879005;23;20241;-72
2022/09/11 15:16:02;;;;;;;;;;;;;;;16.19;72.71;99852.25;12858371;23;20030;-70
2022/09/11 15:21:06;;;;;;;;;;;;;;;16.14;73.71;99848.97;12858745;23;19927;-69
2022/09/11 15:26:10;;;;;;;;;;;;;;;16.15;73.22;99857.69;12858847;23;19920;-69
2022/09/11 15:31:14;;;;;;;;;;;;;;;16.13;73.30;99862.16;12862461;23;19924;-70
2022/09/11 15:36:20;;;;;;;;;;;;;;;16.05;69.54;99865.06;12862303;23;20002;-70
2022/09/11 15:41:24;;;;;;;;;;;;;;;15.98;68.93;99878.44;12883215;23;19947;-74
2022/09/11 15:46:27;;;;;;;;;;;;;;;15.89;68.34;99886.69;12863090;23;19920;-73
2022/09/11 15:51:31;;;;;;;;;;;;;;;15.82;67.74;99891.31;12864769;23;19936;-71
2022/09/11 15:56:34;;;;;;;;;;;;;;;15.67;70.30;99918.03;12862658;23;19928;-73
2022/09/11 16:01:38;;;;;;;;;;;;;;;15.40;75.80;99924.31;12861243;23;19920;-71
2022/09/11 16:06:44;;;;;;;;;;;;;;;15.23;80.15;99938.84;12864782;23;19923;-69
2022/09/11 16:11:49;;;;;;;;;;;;;;;15.05;83.65;99929.91;12861358;23;19931;-71
2022/09/11 16:16:53;;;;;;;;;;;;;;;15.00;86.58;99939.66;12860781;23;20327;-72
2022/09/11 16:21:59;;;;;;;;;;;;;;;14.90;87.83;99946.13;12859199;23;20401;-69
2022/09/11 16:27:04;;;;;;;;;;;;;;;14.83;90.26;99958.53;12864096;23;19924;-71
2022/09/11 16:32:08;;;;;;;;;;;;;;;14.72;90.54;99955.41;12859914;23;20295;-72
2022/09/11 16:37:13;;;;;;;;;;;;;;;14.67;91.98;99962.56;12859274;23;19959;-71
2022/09/11 16:42:19;;;;;;;;;;;;;;;14.61;93.48;99956.69;12859415;23;19989;-71
2022/09/11 16:47:23;;;;;;;;;;;;;;;14.54;96.11;99965.63;12860729;23;19920;-70
2022/09/11 16:52:28;;;;;;;;;;;;;;;14.56;96.18;99963.81;12860092;23;19994;-72
2022/09/11 16:57:31;;;;;;;;;;;;;;;14.47;97.88;99974.56;12860285;23;20197;-70
2022/09/11 17:02:34;;;;;;;;;;;;;;;14.32;98.89;99970.69;12860525;23;19927;-69
2022/09/11 17:07:40;;;;;;;;;;;;;;;14.23;100.00;99991.81;12858939;23;19947;-71
2022/09/11 17:12:43;;;;;;;;;;;;;;;14.23;100.00;100007.50;12865594;23;19928;-71
2022/09/11 17:17:46;;;;;;;;;;;;;;;14.12;100.00;100006.09;12859542;23;20003;-71
2022/09/11 17:22:53;;;;;;;;;;;;;;;13.98;100.00;100008.28;12859696;23;19950;-71
2022/09/11 17:28:00;;;;;;;;;;;;;;;13.93;100.00;100012.78;12865730;23;19924;-69
2022/09/11 17:33:03;;;;;;;;;;;;;;;13.86;100.00;100020.75;12859781;23;19924;-72
2022/09/11 17:38:08;;;;;;;;;;;;;;;13.85;100.00;100026.03;12862032;23;19924;-74
2022/09/11 17:43:12;;;;;;;;;;;;;;;13.81;100.00;100024.41;12861787;23;19939;-70
2022/09/11 17:48:16;;;;;;;;;;;;;;;13.75;100.00;100021.97;12859123;23;19936;-70
2022/09/11 17:53:21;;;;;;;;;;;;;;;13.73;100.00;100013.34;12859151;23;19977;-70
2022/09/11 17:58:24;;;;;;;;;;;;;;;13.78;100.00;100017.53;12865597;23;20589;-73
2022/09/11 18:03:30;;;;;;;;;;;;;;;13.83;100.00;100015.63;12833124;23;20296;-71
2022/09/11 18:08:36;;;;;;;;;;;;;;;13.79;100.00;100024.44;12858769;23;19950;-73
2022/09/11 18:13:40;;;;;;;;;;;;;;;13.84;100.00;100024.31;12866048;23;19931;-72
2022/09/11 18:18:43;;;;;;;;;;;;;;;13.82;100.00;100024.34;12858746;23;19924;-69
2022/09/11 18:23:48;;;;;;;;;;;;;;;13.84;100.00;100029.53;12832975;23;19935;-71
2022/09/11 18:28:55;;;;;;;;;;;;;;;13.77;100.00;100021.03;12859512;23;19934;-68
2022/09/11 18:33:59;;;;;;;;;;;;;;;13.66;100.00;100011.78;12865949;23;20003;-69
2022/09/11 18:39:04;;;;;;;;;;;;;;;13.65;100.00;100007.50;12858690;23;19923;-67
2022/09/11 18:44:09;;;;;;;;;;;;;;;13.71;100.00;100013.38;12858601;23;20011;-65
2022/09/11 18:49:13;;;;;;;;;;;;;;;13.70;100.00;100023.88;12858983;23;19920;-65
2022/09/11 18:54:18;;;;;;;;;;;;;;;13.75;100.00;100021.97;12857891;23;19924;-72
2022/09/11 18:59:21;;;;;;;;;;;;;;;13.83;99.47;100017.38;12865709;23;19955;-73
2022/09/11 19:04:27;;;;;;;;;;;;;;;13.89;97.78;100015.44;12862081;23;20334;-75
2022/09/11 19:09:31;;;;;;;;;;;;;;;13.84;97.43;100019.94;12863743;23;19920;-64
2022/09/11 19:14:34;;;;;;;;;;;;;;;13.87;97.31;100016.41;12864420;23;19955;-69
2022/09/11 19:19:37;;;;;;;;;;;;;;;13.93;96.28;100018.00;12863079;23;20292;-67
2022/09/11 19:24:42;;;;;;;;;;;;;;;13.92;95.64;100014.53;12862311;23;19994;-76
2022/09/11 19:29:45;;;;;;;;;;;;;;;14.00;95.25;100016.88;12861518;23;19923;-72
2022/09/11 19:34:49;;;;;;;;;;;;;;;14.01;94.79;100016.88;12861680;23;19979;-72
2022/09/11 19:39:53;;;;;;;;;;;;;;;14.05;93.63;100017.63;12861603;23;20343;-74
2022/09/11 19:44:56;;;;;;;;;;;;;;;14.02;91.76;100013.34;12861873;23;19935;-70
2022/09/11 19:49:59;;;;;;;;;;;;;;;14.09;90.41;100014.00;12861448;23;19943;-74
2022/09/11 19:55:04;;;;;;;;;;;;;;;14.14;89.56;100007.75;12861856;23;20308;-75
2022/09/11 20:00:08;;;;;;;;;;;;;;;14.18;89.43;100012.00;12861073;23;19928;-76
2022/09/11 20:05:11;;;;;;;;;;;;;;;14.16;87.98;100005.97;12860796;23;20297;-75
2022/09/11 20:10:16;;;;;;;;;;;;;;;14.13;87.11;100010.41;12861222;23;19955;-72
2022/09/11 20:15:19;;;;;;;;;;;;;;;14.22;87.38;100012.75;12860792;23;19940;-72
2022/09/11 20:20:22;;;;;;;;;;;;;;;14.25;87.33;100016.13;12860712;23;19931;-74
2022/09/11 20:25:26;;;;;;;;;;;;;;;14.25;89.75;100017.88;12860598;23;19955;-73
2022/09/11 20:30:31;;;;;;;;;;;;;;;14.22;91.51;100021.41;12860270;23;19927;-71
2022/09/11 20:35:34;;;;;;;;;;;;;;;14.22;93.54;100020.59;12860790;23;20291;-72
2022/09/11 20:40:41;;;;;;;;;;;;;;;14.19;94.74;100015.44;12861488;23;19928;-73
2022/09/11 20:45:44;;;;;;;;;;;;;;;14.16;95.52;100020.75;12873882;23;19920;-75
2022/09/11 20:50:49;;;;;;;;;;;;;;;14.10;96.69;100020.97;12863153;23;19924;-71
2022/09/11 20:55:53;;;;;;;;;;;;;;;14.11;96.79;100023.53;12861521;23;20314;-73
2022/09/11 21:00:57;;;;;;;;;;;;;;;14.12;98.89;100019.13;12860288;23;19931;-73
2022/09/11 21:06:05;;;;;;;;;;;;;;;14.12;98.29;100019.13;12871728;23;19920;-74
2022/09/11 21:11:10;;;;;;;;;;;;;;;14.09;97.18;100020.09;12860890;23;19920;-75
2022/09/11 21:16:14;;;;;;;;;;;;;;;14.11;95.63;100017.44;12859927;23;19924;-72
2022/09/11 21:21:18;;;;;;;;;;;;;;;14.06;92.10;100022.81;12860113;23;20279;-73
2022/09/11 21:26:24;;;;;;;;;;;;;;;14.14;90.70;100014.72;12860232;23;19992;-74
2022/09/11 21:31:29;;;;;;;;;;;;;;;14.14;89.04;100019.94;12859362;23;19951;-72
2022/09/11 21:36:32;;;;;;;;;;;;;;;14.15;88.39;100016.44;12856523;23;19956;-72
2022/09/11 21:41:36;;;;;;;;;;;;;;;14.11;88.17;100027.88;12856975;23;20036;-74
2022/09/11 21:46:39;;;;;;;;;;;;;;;14.03;87.86;100027.25;12857017;23;19951;-71
2022/09/11 21:51:42;;;;;;;;;;;;;;;14.03;87.90;100029.88;12856539;23;20304;-71
2022/09/11 21:56:47;;;;;;;;;;;;;;;13.96;87.92;100029.16;12856437;23;19920;-74
2022/09/11 22:01:49;;;;;;;;;;;;;;;14.02;88.39;100034.22;12856474;23;20007;-73
2022/09/11 22:06:53;;;;;;;;;;;;;;;13.99;88.23;100036.94;12869950;23;20046;-72
2022/09/11 22:11:57;;;;;;;;;;;;;;;14.03;88.36;100035.09;12857479;23;20318;-73
2022/09/11 22:17:02;;;;;;;;;;;;;;;14.00;88.36;100040.38;12858054;23;19955;-72
2022/09/11 22:22:05;;;;;;;;;;;;;;;13.94;88.87;100039.66;12857889;23;20231;-71
2022/09/11 22:27:10;;;;;;;;;;;;;;;13.89;89.25;100038.09;12858710;23;20343;-73
2022/09/11 22:32:13;;;;;;;;;;;;;;;13.89;89.63;100049.38;12783815;23;1747467;-71
2022/09/11 22:37:16;;;;;;;;;;;;;;;13.93;89.68;100044.91;12861103;23;20028;-66
2022/09/11 22:42:20;;;;;;;;;;;;;;;13.93;90.22;100039.69;12863036;23;19923;-72
2022/09/11 22:47:24;;;;;;;;;;;;;;;13.85;90.25;100042.53;12863215;23;19982;-72
2022/09/11 22:52:27;;;;;;;;;;;;;;;13.86;90.76;100039.03;12863183;23;20394;-69
2022/09/11 22:57:31;;;;;;;;;;;;;;;13.84;91.11;100035.59;12862952;23;19999;-71
2022/09/11 23:02:34;;;;;;;;;;;;;;;13.81;91.52;100040.06;12863042;23;19998;-72
2022/09/11 23:07:38;;;;;;;;;;;;;;;13.62;92.30;100047.53;12862796;23;19930;-72
2022/09/11 23:12:43;;;;;;;;;;;;;;;13.58;93.59;100043.28;12863486;23;19947;-69
2022/09/11 23:17:46;;;;;;;;;;;;;;;13.65;93.51;100054.44;12867680;23;19930;-71
2022/09/11 23:22:49;;;;;;;;;;;;;;;13.62;93.71;100050.16;12867206;23;19930;-74
2022/09/11 23:27:53;;;;;;;;;;;;;;;13.66;93.88;100045.69;12862038;23;20014;-73
2022/09/11 23:32:56;;;;;;;;;;;;;;;13.64;94.18;100044.88;12861982;23;19923;-71
2022/09/11 23:37:59;;;;;;;;;;;;;;;13.67;94.29;100040.44;12861554;23;20276;-64
2022/09/11 23:43:03;;;;;;;;;;;;;;;13.57;94.91;100044.19;12861916;23;19948;-64
2022/09/11 23:48:06;;;;;;;;;;;;;;;13.58;95.51;100042.47;12862288;23;19966;-69
2022/09/11 23:53:09;;;;;;;;;;;;;;;13.58;95.46;100039.84;12868919;23;19998;-74
2022/09/11 23:58:14;;;;;;;;;;;;;;;13.57;95.79;100038.13;12868858;23;19959;-68
